Share

Alamo, GA (30411)

12:15 PM EDT on April 23, 2014 (GMT -0400)
South Treutlen Co. (KGATARRY2) Elev 236 ft | 32.32 °N, 82.60 °W | Change Station

Current weather conditions updated 0 second ago

Clear
Clear
79.2 °F
Feels Like 81 °F
N
0.0
Wind Variable Wind from North
Gusts 1.0 mph
Sunrise 6:53 AM
Sunset 8:06 PM
Moon Waning Crescent

Today is forecast to be Cooler than yesterday.

Pressure 29.93 in
Visibility 10.0 miles
Clouds Clear
Heat Index 81 °F
Dew Point 66 °F
Humidity 65%
Rainfall 0.00 in
Snow Depth Not available.
UV 11 out of 16
Pollen 8.30 out of 12
Air Quality Not available.
Flu Activity Sporadic
METAR KAZE 231555Z AUTO 00000KT 10SM CLR 24/18 A2993 RMK AO2 T02350180

More Conditions Fewer Conditions

Pressure 29.93 in
Visibility 10.0 miles
Clouds Clear
Heat Index 81 °F
Dew Point 66 °F
Humidity 65%
Rainfall 0.00 in
Snow Depth Not available.
UV 11 out of 16
Pollen 8.30 out of 12
Air Quality Not available.
Flu Activity Sporadic
METAR KAZE 231555Z AUTO 00000KT 10SM CLR 24/18 A2993 RMK AO2 T02350180

More Conditions Fewer Conditions

10-Day Weather Forecast

Almanac

Astronomy

Apr. 23, 2014 Rise Set
Actual Time 6:53 AM EDT 8:06 PM EDT
Civil Twilight 6:27 AM EDT 8:31 PM EDT
Nautical Twilight 5:57 AM EDT 9:02 PM EDT
Astronomical Twilight 5:25 AM EDT 9:33 PM EDT
Moon 3:02 AM EDT 2:33 PM EDT
Length of Visible Light 14h 04m
Length of Day
13h 13m
Tomorrow will be 1m 46s longer.
Waning Crescent, 35% of the Moon is Illuminated
Today
Waning Crescent
Apr 29
New
May 6
First Quarter
May 14
Full
May 21
Last Quarter

Today's Extremes

State Highs State Lows

Community

  • spring flowers
    spring flowers
  • Earth Day Spectrum Ove' Blue
    Earth Day Spectrum Ove' Blue
  • BARN B&W
    BARN B&W
  • April Sunset
    April Sunset
  • Waiting..
    Waiting..

WunderPhotos

Upload Photos

1,704,322 photos uploaded!

Nearby

Snow Depth

Station Depth Elevation
No new snow has been reported.

Coastal Water Temperatures

Place Temperature
No Stations Reporting

Earthquake Activity

City Distance Mag. Time & Date
No recent earthquake activity has been reported nearby.
Minimum magnitude displayed is 2.5.

Nearby Weather Stations

Station Location Temp. Heat Index Dew Point Humidity Wind Precip. Elev Updated Type
RAWS MCRAE GA, McRae, GA 74 °F 76 °F 64 °F 70% NNW  at  4 mph 0.00 in / hr 201 ft 11:03 AM EDT MADIS
South Treutlen Co., Soperton, GA 79.2 °F 81 °F 66 °F 65% North  at  0.0 mph 0.00 in / hr 236 ft 12:15 PM EDT Rapid Fire
Pineline Ave, Hazlehurst, GA 75.7 °F 74 °F 75 °F 98% NW  at  3.2 mph - / hr 276 ft 12:02 PM EDT Normal
Jacksonville, GA 75.7 °F 78 °F 62 °F 63% West  at  0.0 mph 0.00 in / hr 171 ft 12:11 PM EDT Normal
Eastman, Eastman, GA 77.0 °F 79 °F 60 °F 55% WNW  at  2.7 mph - / hr 381 ft 12:07 PM EDT Normal

Show More Stations Show Fewer Stations

What do you think?

We're not finished. Please let us know what you like, what you don't like, and what you are still missing.